Argo Village, New York
Current Conditions -  °F | °C
As of 2:51 PM on Wednesday 26 Nov 2014 (Local Time) from KJFK Reporting Station
Moderate Rain Moderate Rain  
Wind Chill: -3°   Ceiling: 900
Heat Index:   Visibility: 3mi
Dew Point:   Wind: 17mph
Humidity: 89%   Direction: 30°NNE
Pressure: 29.85"   Gusts: 30mph
Location:  40.7013°N, 73.7074°W
Report Text: KJFK 261951Z 03015G26KT 3SM RA BR BKN009 BKN020 OVC055 03/01 A2985 RMK AO2 PK WND 02026/1942 SFC VIS 4 SNE45 PRESFR SLP108 P0011 T00280011 $
Loading
Personal Weather Stations






























Interactive Weather Map New forecast layout! Learn more

10-Day Weather Forecast

Advertisements
Track Severe Weather on mobile